sensor_id;sensor_type;location;lat;lon;timestamp;temperature;humidity
6102;DHT22;3081;50.584;7.032;2022-09-09T00:02:27;16.20;99.90
6102;DHT22;3081;50.584;7.032;2022-09-09T00:04:58;16.20;99.90
6102;DHT22;3081;50.584;7.032;2022-09-09T00:07:36;16.20;99.90
6102;DHT22;3081;50.584;7.032;2022-09-09T00:10:14;16.10;99.90
6102;DHT22;3081;50.584;7.032;2022-09-09T00:12:50;16.10;99.90
6102;DHT22;3081;50.584;7.032;2022-09-09T00:15:23;16.10;99.90
6102;DHT22;3081;50.584;7.032;2022-09-09T00:17:58;16.10;99.90
6102;DHT22;3081;50.584;7.032;2022-09-09T00:20:32;16.10;99.90
6102;DHT22;3081;50.584;7.032;2022-09-09T00:23:13;16.00;99.90
6102;DHT22;3081;50.584;7.032;2022-09-09T00:25:49;16.00;99.90
6102;DHT22;3081;50.584;7.032;2022-09-09T00:28:24;16.00;99.90
6102;DHT22;3081;50.584;7.032;2022-09-09T00:30:52;16.00;99.90
6102;DHT22;3081;50.584;7.032;2022-09-09T00:33:23;15.90;99.90
6102;DHT22;3081;50.584;7.032;2022-09-09T00:35:53;15.90;99.90
6102;DHT22;3081;50.584;7.032;2022-09-09T00:38:25;16.00;99.90
6102;DHT22;3081;50.584;7.032;2022-09-09T00:41:00;16.00;99.90
6102;DHT22;3081;50.584;7.032;2022-09-09T00:43:32;16.00;99.90
6102;DHT22;3081;50.584;7.032;2022-09-09T00:46:12;16.00;99.90
6102;DHT22;3081;50.584;7.032;2022-09-09T00:48:51;16.10;99.90
6102;DHT22;3081;50.584;7.032;2022-09-09T00:51:35;16.00;99.90
6102;DHT22;3081;50.584;7.032;2022-09-09T00:54:20;16.10;99.90
6102;DHT22;3081;50.584;7.032;2022-09-09T00:56:56;16.10;99.90
6102;DHT22;3081;50.584;7.032;2022-09-09T00:59:35;16.10;99.90
6102;DHT22;3081;50.584;7.032;2022-09-09T01:02:16;16.00;99.90
6102;DHT22;3081;50.584;7.032;2022-09-09T01:04:45;16.00;99.90
6102;DHT22;3081;50.584;7.032;2022-09-09T01:07:16;16.10;99.90
6102;DHT22;3081;50.584;7.032;2022-09-09T01:09:52;16.10;99.90
6102;DHT22;3081;50.584;7.032;2022-09-09T01:12:25;16.10;99.90
6102;DHT22;3081;50.584;7.032;2022-09-09T01:15:00;16.10;99.90
6102;DHT22;3081;50.584;7.032;2022-09-09T01:17:31;16.10;99.90
6102;DHT22;3081;50.584;7.032;2022-09-09T01:20:05;16.10;99.90
6102;DHT22;3081;50.584;7.032;2022-09-09T01:22:39;16.10;99.90
6102;DHT22;3081;50.584;7.032;2022-09-09T01:25:22;16.10;99.90
6102;DHT22;3081;50.584;7.032;2022-09-09T01:27:56;16.10;99.90
6102;DHT22;3081;50.584;7.032;2022-09-09T01:30:25;16.20;99.90
6102;DHT22;3081;50.584;7.032;2022-09-09T01:32:54;16.20;99.90
6102;DHT22;3081;50.584;7.032;2022-09-09T01:35:34;16.20;99.90
6102;DHT22;3081;50.584;7.032;2022-09-09T01:38:04;16.10;99.90
6102;DHT22;3081;50.584;7.032;2022-09-09T01:40:32;16.10;99.90
6102;DHT22;3081;50.584;7.032;2022-09-09T01:43:00;16.00;99.90
6102;DHT22;3081;50.584;7.032;2022-09-09T01:45:27;16.00;99.90
6102;DHT22;3081;50.584;7.032;2022-09-09T01:47:54;15.90;99.90
6102;DHT22;3081;50.584;7.032;2022-09-09T01:50:22;15.90;99.90
6102;DHT22;3081;50.584;7.032;2022-09-09T01:52:53;16.00;99.90
6102;DHT22;3081;50.584;7.032;2022-09-09T01:55:28;16.00;99.90
6102;DHT22;3081;50.584;7.032;2022-09-09T01:58:10;16.00;99.90
6102;DHT22;3081;50.584;7.032;2022-09-09T02:00:44;16.00;99.90
6102;DHT22;3081;50.584;7.032;2022-09-09T02:03:20;16.10;99.90
6102;DHT22;3081;50.584;7.032;2022-09-09T02:05:55;16.10;99.90
6102;DHT22;3081;50.584;7.032;2022-09-09T02:08:31;16.00;99.90
6102;DHT22;3081;50.584;7.032;2022-09-09T02:11:03;16.00;99.90
6102;DHT22;3081;50.584;7.032;2022-09-09T02:13:35;16.00;99.90
6102;DHT22;3081;50.584;7.032;2022-09-09T02:16:07;16.00;99.90
6102;DHT22;3081;50.584;7.032;2022-09-09T02:18:38;16.00;99.90
6102;DHT22;3081;50.584;7.032;2022-09-09T02:21:07;16.00;99.90
6102;DHT22;3081;50.584;7.032;2022-09-09T02:23:36;16.00;99.90
6102;DHT22;3081;50.584;7.032;2022-09-09T02:26:06;16.00;99.90
6102;DHT22;3081;50.584;7.032;2022-09-09T02:28:35;16.00;99.90
6102;DHT22;3081;50.584;7.032;2022-09-09T02:31:04;16.00;99.90
6102;DHT22;3081;50.584;7.032;2022-09-09T02:33:35;16.00;99.90
6102;DHT22;3081;50.584;7.032;2022-09-09T02:36:05;16.00;99.90
6102;DHT22;3081;50.584;7.032;2022-09-09T02:38:36;16.00;99.90
6102;DHT22;3081;50.584;7.032;2022-09-09T02:41:05;16.10;99.90
6102;DHT22;3081;50.584;7.032;2022-09-09T02:43:34;16.10;99.90
6102;DHT22;3081;50.584;7.032;2022-09-09T02:46:09;16.10;99.90
6102;DHT22;3081;50.584;7.032;2022-09-09T02:48:51;16.10;99.90
6102;DHT22;3081;50.584;7.032;2022-09-09T02:51:26;16.10;99.90
6102;DHT22;3081;50.584;7.032;2022-09-09T02:53:59;16.10;99.90
6102;DHT22;3081;50.584;7.032;2022-09-09T02:56:31;16.10;99.90
6102;DHT22;3081;50.584;7.032;2022-09-09T02:59:03;16.00;99.90
6102;DHT22;3081;50.584;7.032;2022-09-09T03:01:30;16.00;99.90
6102;DHT22;3081;50.584;7.032;2022-09-09T03:03:57;16.00;99.90
6102;DHT22;3081;50.584;7.032;2022-09-09T03:06:24;16.00;99.90
6102;DHT22;3081;50.584;7.032;2022-09-09T03:08:51;16.10;99.90
6102;DHT22;3081;50.584;7.032;2022-09-09T03:11:18;16.00;99.90
6102;DHT22;3081;50.584;7.032;2022-09-09T03:13:45;16.00;99.90
6102;DHT22;3081;50.584;7.032;2022-09-09T03:16:14;16.00;99.90
6102;DHT22;3081;50.584;7.032;2022-09-09T03:18:41;15.90;99.90
6102;DHT22;3081;50.584;7.032;2022-09-09T03:21:08;15.90;99.90
6102;DHT22;3081;50.584;7.032;2022-09-09T03:23:35;15.90;99.90
6102;DHT22;3081;50.584;7.032;2022-09-09T03:26:02;15.90;99.90
6102;DHT22;3081;50.584;7.032;2022-09-09T03:28:29;15.90;99.90
6102;DHT22;3081;50.584;7.032;2022-09-09T03:30:59;15.90;99.90
6102;DHT22;3081;50.584;7.032;2022-09-09T03:33:27;15.90;99.90
6102;DHT22;3081;50.584;7.032;2022-09-09T03:35:55;15.90;99.90
6102;DHT22;3081;50.584;7.032;2022-09-09T03:38:22;15.90;99.90
6102;DHT22;3081;50.584;7.032;2022-09-09T03:40:50;15.90;99.90
6102;DHT22;3081;50.584;7.032;2022-09-09T03:43:19;15.90;99.90
6102;DHT22;3081;50.584;7.032;2022-09-09T03:45:47;15.90;99.90
6102;DHT22;3081;50.584;7.032;2022-09-09T03:48:14;15.90;99.90
6102;DHT22;3081;50.584;7.032;2022-09-09T03:50:45;15.90;99.90
6102;DHT22;3081;50.584;7.032;2022-09-09T03:53:14;15.90;99.90
6102;DHT22;3081;50.584;7.032;2022-09-09T03:55:44;15.90;99.90
6102;DHT22;3081;50.584;7.032;2022-09-09T03:58:11;15.90;99.90
6102;DHT22;3081;50.584;7.032;2022-09-09T04:00:39;15.90;99.90
6102;DHT22;3081;50.584;7.032;2022-09-09T04:03:08;15.90;99.90
6102;DHT22;3081;50.584;7.032;2022-09-09T04:05:35;15.90;99.90
6102;DHT22;3081;50.584;7.032;2022-09-09T04:08:06;15.90;99.90
6102;DHT22;3081;50.584;7.032;2022-09-09T04:10:34;15.90;99.90
6102;DHT22;3081;50.584;7.032;2022-09-09T04:13:02;15.90;99.90
6102;DHT22;3081;50.584;7.032;2022-09-09T04:15:30;15.90;99.90
6102;DHT22;3081;50.584;7.032;2022-09-09T04:17:57;15.90;99.90
6102;DHT22;3081;50.584;7.032;2022-09-09T04:20:24;15.90;99.90
6102;DHT22;3081;50.584;7.032;2022-09-09T04:22:51;15.90;99.90
6102;DHT22;3081;50.584;7.032;2022-09-09T04:25:19;15.90;99.90
6102;DHT22;3081;50.584;7.032;2022-09-09T04:27:46;15.90;99.90
6102;DHT22;3081;50.584;7.032;2022-09-09T04:30:13;15.80;99.90
6102;DHT22;3081;50.584;7.032;2022-09-09T04:32:40;15.80;99.90
6102;DHT22;3081;50.584;7.032;2022-09-09T04:35:07;15.80;99.90
6102;DHT22;3081;50.584;7.032;2022-09-09T04:37:34;15.90;99.90
6102;DHT22;3081;50.584;7.032;2022-09-09T04:40:01;15.80;99.90
6102;DHT22;3081;50.584;7.032;2022-09-09T04:42:30;15.80;99.90
6102;DHT22;3081;50.584;7.032;2022-09-09T04:44:57;15.70;99.90
6102;DHT22;3081;50.584;7.032;2022-09-09T04:47:24;15.70;99.90
6102;DHT22;3081;50.584;7.032;2022-09-09T04:49:50;15.70;99.90
6102;DHT22;3081;50.584;7.032;2022-09-09T04:52:19;15.70;99.90
6102;DHT22;3081;50.584;7.032;2022-09-09T04:54:46;15.80;99.90
6102;DHT22;3081;50.584;7.032;2022-09-09T04:57:13;15.70;99.90
6102;DHT22;3081;50.584;7.032;2022-09-09T04:59:42;15.80;99.90
6102;DHT22;3081;50.584;7.032;2022-09-09T05:02:10;15.80;99.90
6102;DHT22;3081;50.584;7.032;2022-09-09T05:04:36;15.80;99.90
6102;DHT22;3081;50.584;7.032;2022-09-09T05:07:03;15.80;99.90
6102;DHT22;3081;50.584;7.032;2022-09-09T05:09:30;15.90;99.90
6102;DHT22;3081;50.584;7.032;2022-09-09T05:11:57;15.90;99.90
6102;DHT22;3081;50.584;7.032;2022-09-09T05:14:24;15.90;99.90
6102;DHT22;3081;50.584;7.032;2022-09-09T05:16:53;16.00;99.90
6102;DHT22;3081;50.584;7.032;2022-09-09T05:19:21;16.00;99.90
6102;DHT22;3081;50.584;7.032;2022-09-09T05:21:48;16.00;99.90
6102;DHT22;3081;50.584;7.032;2022-09-09T05:24:15;16.10;99.90
6102;DHT22;3081;50.584;7.032;2022-09-09T05:26:42;16.10;99.90
6102;DHT22;3081;50.584;7.032;2022-09-09T05:29:09;16.10;99.90
6102;DHT22;3081;50.584;7.032;2022-09-09T05:31:36;16.00;99.90
6102;DHT22;3081;50.584;7.032;2022-09-09T05:34:05;16.00;99.90
6102;DHT22;3081;50.584;7.032;2022-09-09T05:36:32;16.10;99.90
6102;DHT22;3081;50.584;7.032;2022-09-09T05:38:59;16.10;99.90
6102;DHT22;3081;50.584;7.032;2022-09-09T05:41:27;16.20;99.90
6102;DHT22;3081;50.584;7.032;2022-09-09T05:43:54;16.20;99.90
6102;DHT22;3081;50.584;7.032;2022-09-09T05:46:23;16.30;99.90
6102;DHT22;3081;50.584;7.032;2022-09-09T05:48:51;16.30;99.90
6102;DHT22;3081;50.584;7.032;2022-09-09T05:51:21;16.40;99.90
6102;DHT22;3081;50.584;7.032;2022-09-09T05:53:50;16.50;99.90
6102;DHT22;3081;50.584;7.032;2022-09-09T05:56:19;16.50;99.90
6102;DHT22;3081;50.584;7.032;2022-09-09T05:58:47;16.60;99.90
6102;DHT22;3081;50.584;7.032;2022-09-09T06:01:16;16.80;99.90
6102;DHT22;3081;50.584;7.032;2022-09-09T06:03:45;16.90;99.90
6102;DHT22;3081;50.584;7.032;2022-09-09T06:06:14;16.90;99.90
6102;DHT22;3081;50.584;7.032;2022-09-09T06:08:44;17.10;99.90
6102;DHT22;3081;50.584;7.032;2022-09-09T06:11:13;17.10;99.90
6102;DHT22;3081;50.584;7.032;2022-09-09T06:13:41;17.10;99.90
6102;DHT22;3081;50.584;7.032;2022-09-09T06:16:08;17.00;99.90
6102;DHT22;3081;50.584;7.032;2022-09-09T06:18:36;17.00;99.90
6102;DHT22;3081;50.584;7.032;2022-09-09T06:21:05;17.00;99.90
6102;DHT22;3081;50.584;7.032;2022-09-09T06:23:33;17.00;99.90
6102;DHT22;3081;50.584;7.032;2022-09-09T06:26:04;17.00;99.90
6102;DHT22;3081;50.584;7.032;2022-09-09T06:28:32;17.00;99.90
6102;DHT22;3081;50.584;7.032;2022-09-09T06:30:59;17.10;99.90
6102;DHT22;3081;50.584;7.032;2022-09-09T06:33:26;17.20;99.90
6102;DHT22;3081;50.584;7.032;2022-09-09T06:35:54;17.30;99.90
6102;DHT22;3081;50.584;7.032;2022-09-09T06:38:22;17.30;99.90
6102;DHT22;3081;50.584;7.032;2022-09-09T06:40:53;17.30;99.90
6102;DHT22;3081;50.584;7.032;2022-09-09T06:43:22;17.30;99.90
6102;DHT22;3081;50.584;7.032;2022-09-09T06:45:56;17.30;99.90
6102;DHT22;3081;50.584;7.032;2022-09-09T06:48:23;17.40;99.90
6102;DHT22;3081;50.584;7.032;2022-09-09T06:50:51;17.50;99.90
6102;DHT22;3081;50.584;7.032;2022-09-09T06:53:19;17.60;99.90
6102;DHT22;3081;50.584;7.032;2022-09-09T06:55:46;17.70;99.90
6102;DHT22;3081;50.584;7.032;2022-09-09T06:58:13;17.70;99.90
6102;DHT22;3081;50.584;7.032;2022-09-09T07:00:41;17.70;99.90
6102;DHT22;3081;50.584;7.032;2022-09-09T07:03:10;17.80;99.90
6102;DHT22;3081;50.584;7.032;2022-09-09T07:05:37;17.80;99.90
6102;DHT22;3081;50.584;7.032;2022-09-09T07:08:04;17.80;99.90
6102;DHT22;3081;50.584;7.032;2022-09-09T07:10:31;17.70;99.90
6102;DHT22;3081;50.584;7.032;2022-09-09T07:12:59;17.70;99.90
6102;DHT22;3081;50.584;7.032;2022-09-09T07:15:27;17.80;99.90
6102;DHT22;3081;50.584;7.032;2022-09-09T07:18:00;17.80;99.90
6102;DHT22;3081;50.584;7.032;2022-09-09T07:20:27;17.90;99.90
6102;DHT22;3081;50.584;7.032;2022-09-09T07:22:55;17.90;99.90
6102;DHT22;3081;50.584;7.032;2022-09-09T07:25:22;17.80;99.90
6102;DHT22;3081;50.584;7.032;2022-09-09T07:27:49;17.80;99.90
6102;DHT22;3081;50.584;7.032;2022-09-09T07:30:17;17.90;99.90
6102;DHT22;3081;50.584;7.032;2022-09-09T07:32:45;17.90;99.90
6102;DHT22;3081;50.584;7.032;2022-09-09T07:35:13;18.00;99.90
6102;DHT22;3081;50.584;7.032;2022-09-09T07:37:40;18.10;99.90
6102;DHT22;3081;50.584;7.032;2022-09-09T07:40:07;18.00;99.90
6102;DHT22;3081;50.584;7.032;2022-09-09T07:42:35;18.10;99.90
6102;DHT22;3081;50.584;7.032;2022-09-09T07:45:03;18.30;99.90
6102;DHT22;3081;50.584;7.032;2022-09-09T07:47:31;18.60;99.90
6102;DHT22;3081;50.584;7.032;2022-09-09T07:49:58;18.60;99.90
6102;DHT22;3081;50.584;7.032;2022-09-09T07:52:26;18.60;99.90
6102;DHT22;3081;50.584;7.032;2022-09-09T07:54:54;18.70;99.90
6102;DHT22;3081;50.584;7.032;2022-09-09T07:57:21;18.70;99.90
6102;DHT22;3081;50.584;7.032;2022-09-09T07:59:48;18.80;99.90
6102;DHT22;3081;50.584;7.032;2022-09-09T08:02:16;18.80;99.90
6102;DHT22;3081;50.584;7.032;2022-09-09T08:04:43;19.00;99.90
6102;DHT22;3081;50.584;7.032;2022-09-09T08:07:10;19.00;99.90
6102;DHT22;3081;50.584;7.032;2022-09-09T08:09:38;19.00;99.90
6102;DHT22;3081;50.584;7.032;2022-09-09T08:12:05;19.10;99.90
6102;DHT22;3081;50.584;7.032;2022-09-09T08:14:34;19.20;99.90
6102;DHT22;3081;50.584;7.032;2022-09-09T08:17:02;19.30;99.90
6102;DHT22;3081;50.584;7.032;2022-09-09T08:19:29;19.20;99.90
6102;DHT22;3081;50.584;7.032;2022-09-09T08:21:56;19.20;99.90
6102;DHT22;3081;50.584;7.032;2022-09-09T08:24:23;19.30;99.90
6102;DHT22;3081;50.584;7.032;2022-09-09T08:26:51;19.30;99.90
6102;DHT22;3081;50.584;7.032;2022-09-09T08:29:19;19.40;99.90
6102;DHT22;3081;50.584;7.032;2022-09-09T08:31:48;19.50;99.90
6102;DHT22;3081;50.584;7.032;2022-09-09T08:34:15;19.60;99.90
6102;DHT22;3081;50.584;7.032;2022-09-09T08:36:44;19.70;99.90
6102;DHT22;3081;50.584;7.032;2022-09-09T08:39:13;19.90;99.90
6102;DHT22;3081;50.584;7.032;2022-09-09T08:41:51;20.50;99.90
6102;DHT22;3081;50.584;7.032;2022-09-09T08:44:31;20.70;99.90
6102;DHT22;3081;50.584;7.032;2022-09-09T08:47:09;21.50;99.90
6102;DHT22;3081;50.584;7.032;2022-09-09T08:49:53;22.70;99.90
6102;DHT22;3081;50.584;7.032;2022-09-09T08:52:26;23.20;99.90
6102;DHT22;3081;50.584;7.032;2022-09-09T08:54:58;23.90;99.90
6102;DHT22;3081;50.584;7.032;2022-09-09T08:57:31;23.60;99.90
6102;DHT22;3081;50.584;7.032;2022-09-09T08:59:59;23.10;99.90
6102;DHT22;3081;50.584;7.032;2022-09-09T09:02:30;23.00;99.90
6102;DHT22;3081;50.584;7.032;2022-09-09T09:05:07;23.70;99.80
6102;DHT22;3081;50.584;7.032;2022-09-09T09:07:46;24.20;98.30
6102;DHT22;3081;50.584;7.032;2022-09-09T09:10:24;23.10;97.80
6102;DHT22;3081;50.584;7.032;2022-09-09T09:12:55;21.90;99.90
6102;DHT22;3081;50.584;7.032;2022-09-09T09:15:24;21.50;99.90
6102;DHT22;3081;50.584;7.032;2022-09-09T09:17:52;21.80;99.90
6102;DHT22;3081;50.584;7.032;2022-09-09T09:20:23;22.80;99.90
6102;DHT22;3081;50.584;7.032;2022-09-09T09:22:59;24.00;97.50
6102;DHT22;3081;50.584;7.032;2022-09-09T09:25:33;25.20;94.10
6102;DHT22;3081;50.584;7.032;2022-09-09T09:28:09;25.90;92.80
6102;DHT22;3081;50.584;7.032;2022-09-09T09:30:45;26.70;90.20
6102;DHT22;3081;50.584;7.032;2022-09-09T09:33:20;26.40;90.00
6102;DHT22;3081;50.584;7.032;2022-09-09T09:35:49;26.70;88.30
6102;DHT22;3081;50.584;7.032;2022-09-09T09:38:18;25.50;88.40
6102;DHT22;3081;50.584;7.032;2022-09-09T09:40:50;25.10;90.10
6102;DHT22;3081;50.584;7.032;2022-09-09T09:43:23;25.50;88.40
6102;DHT22;3081;50.584;7.032;2022-09-09T09:45:51;25.80;86.80
6102;DHT22;3081;50.584;7.032;2022-09-09T09:48:17;26.00;86.50
6102;DHT22;3081;50.584;7.032;2022-09-09T09:50:49;26.30;85.30
6102;DHT22;3081;50.584;7.032;2022-09-09T09:53:22;25.20;85.10
6102;DHT22;3081;50.584;7.032;2022-09-09T09:55:54;23.70;88.70
6102;DHT22;3081;50.584;7.032;2022-09-09T09:58:23;23.10;90.90
6102;DHT22;3081;50.584;7.032;2022-09-09T10:00:52;24.00;90.20
6102;DHT22;3081;50.584;7.032;2022-09-09T10:03:25;25.70;86.30
6102;DHT22;3081;50.584;7.032;2022-09-09T10:05:53;26.40;82.90
6102;DHT22;3081;50.584;7.032;2022-09-09T10:08:20;26.50;82.40
6102;DHT22;3081;50.584;7.032;2022-09-09T10:11:26;26.70;80.60
6102;DHT22;3081;50.584;7.032;2022-09-09T10:14:05;26.10;81.20
6102;DHT22;3081;50.584;7.032;2022-09-09T10:16:45;25.70;83.80
6102;DHT22;3081;50.584;7.032;2022-09-09T10:19:26;26.10;81.10
6102;DHT22;3081;50.584;7.032;2022-09-09T10:22:23;26.40;81.40
6102;DHT22;3081;50.584;7.032;2022-09-09T10:25:13;27.40;78.70
6102;DHT22;3081;50.584;7.032;2022-09-09T10:27:53;27.30;76.60
6102;DHT22;3081;50.584;7.032;2022-09-09T10:30:25;27.80;76.90
6102;DHT22;3081;50.584;7.032;2022-09-09T10:33:02;28.10;72.90
6102;DHT22;3081;50.584;7.032;2022-09-09T10:35:35;27.10;75.70
6102;DHT22;3081;50.584;7.032;2022-09-09T10:38:14;26.40;77.70
6102;DHT22;3081;50.584;7.032;2022-09-09T10:40:49;25.70;79.30
6102;DHT22;3081;50.584;7.032;2022-09-09T10:43:42;25.20;79.80
6102;DHT22;3081;50.584;7.032;2022-09-09T10:46:20;25.70;82.00
6102;DHT22;3081;50.584;7.032;2022-09-09T10:49:03;25.80;78.10
6102;DHT22;3081;50.584;7.032;2022-09-09T10:51:38;24.50;81.50
6102;DHT22;3081;50.584;7.032;2022-09-09T10:54:18;23.20;85.70
6102;DHT22;3081;50.584;7.032;2022-09-09T10:56:52;23.10;88.80
6102;DHT22;3081;50.584;7.032;2022-09-09T10:59:25;23.90;85.40
6102;DHT22;3081;50.584;7.032;2022-09-09T11:01:58;24.30;83.90
6102;DHT22;3081;50.584;7.032;2022-09-09T11:04:30;23.50;85.90
6102;DHT22;3081;50.584;7.032;2022-09-09T11:07:07;23.10;88.50
6102;DHT22;3081;50.584;7.032;2022-09-09T11:09:38;24.20;87.40
6102;DHT22;3081;50.584;7.032;2022-09-09T11:12:12;26.10;83.00
6102;DHT22;3081;50.584;7.032;2022-09-09T11:14:43;27.80;78.40
6102;DHT22;3081;50.584;7.032;2022-09-09T11:17:16;27.70;73.70
6102;DHT22;3081;50.584;7.032;2022-09-09T11:19:45;27.20;75.50
6102;DHT22;3081;50.584;7.032;2022-09-09T11:22:22;27.80;73.20
6102;DHT22;3081;50.584;7.032;2022-09-09T11:24:54;27.20;73.40
6102;DHT22;3081;50.584;7.032;2022-09-09T11:27:26;26.90;74.20
6102;DHT22;3081;50.584;7.032;2022-09-09T11:30:16;28.00;72.90
6102;DHT22;3081;50.584;7.032;2022-09-09T11:33:13;29.30;69.00
6102;DHT22;3081;50.584;7.032;2022-09-09T11:35:54;28.40;68.90
6102;DHT22;3081;50.584;7.032;2022-09-09T11:38:28;27.40;70.60
6102;DHT22;3081;50.584;7.032;2022-09-09T11:40:59;26.20;71.80
6102;DHT22;3081;50.584;7.032;2022-09-09T11:43:30;25.50;74.40
6102;DHT22;3081;50.584;7.032;2022-09-09T11:46:00;25.10;75.60
6102;DHT22;3081;50.584;7.032;2022-09-09T11:48:37;26.00;75.80
6102;DHT22;3081;50.584;7.032;2022-09-09T11:51:06;27.20;72.20
6102;DHT22;3081;50.584;7.032;2022-09-09T11:53:36;28.50;69.10
6102;DHT22;3081;50.584;7.032;2022-09-09T11:56:24;28.80;66.30
6102;DHT22;3081;50.584;7.032;2022-09-09T11:58:59;28.30;66.00
6102;DHT22;3081;50.584;7.032;2022-09-09T12:01:38;27.80;68.80
6102;DHT22;3081;50.584;7.032;2022-09-09T12:04:28;27.40;69.60
6102;DHT22;3081;50.584;7.032;2022-09-09T12:06:58;26.90;70.50
6102;DHT22;3081;50.584;7.032;2022-09-09T12:09:32;26.70;70.90
6102;DHT22;3081;50.584;7.032;2022-09-09T12:12:23;26.50;72.40
6102;DHT22;3081;50.584;7.032;2022-09-09T12:17:47;27.70;69.60
6102;DHT22;3081;50.584;7.032;2022-09-09T12:20:18;27.70;69.90
6102;DHT22;3081;50.584;7.032;2022-09-09T12:25:57;27.00;68.40
6102;DHT22;3081;50.584;7.032;2022-09-09T12:28:39;26.40;70.90
6102;DHT22;3081;50.584;7.032;2022-09-09T12:31:12;25.80;72.10
6102;DHT22;3081;50.584;7.032;2022-09-09T12:33:44;25.20;72.60
6102;DHT22;3081;50.584;7.032;2022-09-09T12:36:15;24.90;72.40
6102;DHT22;3081;50.584;7.032;2022-09-09T12:38:43;24.50;74.50
6102;DHT22;3081;50.584;7.032;2022-09-09T12:41:20;24.50;74.50
6102;DHT22;3081;50.584;7.032;2022-09-09T12:43:47;24.40;74.00
6102;DHT22;3081;50.584;7.032;2022-09-09T12:46:21;24.10;75.30
6102;DHT22;3081;50.584;7.032;2022-09-09T12:48:49;24.10;75.00
6102;DHT22;3081;50.584;7.032;2022-09-09T12:51:23;24.00;75.30
6102;DHT22;3081;50.584;7.032;2022-09-09T12:53:51;23.90;75.70
6102;DHT22;3081;50.584;7.032;2022-09-09T12:56:19;23.60;76.00
6102;DHT22;3081;50.584;7.032;2022-09-09T12:58:48;23.40;76.70
6102;DHT22;3081;50.584;7.032;2022-09-09T13:01:22;23.10;78.10
6102;DHT22;3081;50.584;7.032;2022-09-09T13:03:49;23.10;79.00
6102;DHT22;3081;50.584;7.032;2022-09-09T13:06:21;22.90;79.20
6102;DHT22;3081;50.584;7.032;2022-09-09T13:08:49;22.70;84.50
6102;DHT22;3081;50.584;7.032;2022-09-09T13:11:19;22.50;82.40
6102;DHT22;3081;50.584;7.032;2022-09-09T13:13:51;22.30;84.40
6102;DHT22;3081;50.584;7.032;2022-09-09T13:16:21;23.10;84.40
6102;DHT22;3081;50.584;7.032;2022-09-09T13:18:49;24.40;80.60
6102;DHT22;3081;50.584;7.032;2022-09-09T13:21:16;25.60;78.20
6102;DHT22;3081;50.584;7.032;2022-09-09T13:23:48;26.60;76.10
6102;DHT22;3081;50.584;7.032;2022-09-09T13:26:22;26.80;74.10
6102;DHT22;3081;50.584;7.032;2022-09-09T13:28:49;27.80;73.00
6102;DHT22;3081;50.584;7.032;2022-09-09T13:31:22;29.10;68.90
6102;DHT22;3081;50.584;7.032;2022-09-09T13:33:49;29.60;65.90
6102;DHT22;3081;50.584;7.032;2022-09-09T13:36:28;27.80;69.30
6102;DHT22;3081;50.584;7.032;2022-09-09T13:38:58;27.10;71.70
6102;DHT22;3081;50.584;7.032;2022-09-09T13:41:35;26.60;72.30
6102;DHT22;3081;50.584;7.032;2022-09-09T13:44:03;26.10;74.40
6102;DHT22;3081;50.584;7.032;2022-09-09T13:46:34;26.30;75.60
6102;DHT22;3081;50.584;7.032;2022-09-09T13:49:03;26.60;74.50
6102;DHT22;3081;50.584;7.032;2022-09-09T13:51:46;26.60;73.90
6102;DHT22;3081;50.584;7.032;2022-09-09T13:54:17;26.70;74.30
6102;DHT22;3081;50.584;7.032;2022-09-09T13:56:45;28.20;71.40
6102;DHT22;3081;50.584;7.032;2022-09-09T13:59:14;29.90;66.40
6102;DHT22;3081;50.584;7.032;2022-09-09T14:01:41;29.80;65.00
6102;DHT22;3081;50.584;7.032;2022-09-09T14:04:09;28.90;67.20
6102;DHT22;3081;50.584;7.032;2022-09-09T14:06:37;29.60;67.60
6102;DHT22;3081;50.584;7.032;2022-09-09T14:09:04;31.30;63.80
6102;DHT22;3081;50.584;7.032;2022-09-09T14:11:33;32.20;62.80
6102;DHT22;3081;50.584;7.032;2022-09-09T14:14:00;33.50;59.30
6102;DHT22;3081;50.584;7.032;2022-09-09T14:16:28;32.40;58.60
6102;DHT22;3081;50.584;7.032;2022-09-09T14:18:55;29.80;62.40
6102;DHT22;3081;50.584;7.032;2022-09-09T14:21:22;27.20;68.10
6102;DHT22;3081;50.584;7.032;2022-09-09T14:23:49;25.10;74.10
6102;DHT22;3081;50.584;7.032;2022-09-09T14:26:18;24.00;78.10
6102;DHT22;3081;50.584;7.032;2022-09-09T14:28:48;23.10;81.60
6102;DHT22;3081;50.584;7.032;2022-09-09T14:31:16;22.50;84.40
6102;DHT22;3081;50.584;7.032;2022-09-09T14:33:43;22.10;87.10
6102;DHT22;3081;50.584;7.032;2022-09-09T14:36:10;21.70;90.30
6102;DHT22;3081;50.584;7.032;2022-09-09T14:38:38;21.60;90.80
6102;DHT22;3081;50.584;7.032;2022-09-09T14:41:07;21.70;92.50
6102;DHT22;3081;50.584;7.032;2022-09-09T14:43:37;22.10;92.90
6102;DHT22;3081;50.584;7.032;2022-09-09T14:46:09;22.80;92.00
6102;DHT22;3081;50.584;7.032;2022-09-09T14:48:36;26.30;87.30
6102;DHT22;3081;50.584;7.032;2022-09-09T14:51:07;29.60;77.80
6102;DHT22;3081;50.584;7.032;2022-09-09T14:53:34;31.60;70.80
6102;DHT22;3081;50.584;7.032;2022-09-09T14:56:06;33.40;66.90
6102;DHT22;3081;50.584;7.032;2022-09-09T14:58:34;34.60;59.90
6102;DHT22;3081;50.584;7.032;2022-09-09T15:01:04;33.00;60.40
6102;DHT22;3081;50.584;7.032;2022-09-09T15:03:33;30.70;63.50
6102;DHT22;3081;50.584;7.032;2022-09-09T15:06:05;28.60;68.40
6102;DHT22;3081;50.584;7.032;2022-09-09T15:08:34;26.70;72.30
6102;DHT22;3081;50.584;7.032;2022-09-09T15:11:01;25.00;76.40
6102;DHT22;3081;50.584;7.032;2022-09-09T15:13:28;24.40;79.90
6102;DHT22;3081;50.584;7.032;2022-09-09T15:15:55;24.20;80.60
6102;DHT22;3081;50.584;7.032;2022-09-09T15:18:23;23.70;82.10
6102;DHT22;3081;50.584;7.032;2022-09-09T15:20:52;23.10;84.70
6102;DHT22;3081;50.584;7.032;2022-09-09T15:23:19;22.60;86.60
6102;DHT22;3081;50.584;7.032;2022-09-09T15:25:52;22.30;87.50
6102;DHT22;3081;50.584;7.032;2022-09-09T15:28:20;22.00;87.70
6102;DHT22;3081;50.584;7.032;2022-09-09T15:30:48;21.60;91.10
6102;DHT22;3081;50.584;7.032;2022-09-09T15:33:15;21.40;91.40
6102;DHT22;3081;50.584;7.032;2022-09-09T15:35:42;21.40;90.40
6102;DHT22;3081;50.584;7.032;2022-09-09T15:38:11;21.20;90.60
6102;DHT22;3081;50.584;7.032;2022-09-09T15:40:40;21.30;91.00
6102;DHT22;3081;50.584;7.032;2022-09-09T15:43:08;21.50;91.20
6102;DHT22;3081;50.584;7.032;2022-09-09T15:45:36;21.50;91.40
6102;DHT22;3081;50.584;7.032;2022-09-09T15:48:04;21.50;91.50
6102;DHT22;3081;50.584;7.032;2022-09-09T15:50:31;21.50;91.50
6102;DHT22;3081;50.584;7.032;2022-09-09T15:52:58;21.50;91.70
6102;DHT22;3081;50.584;7.032;2022-09-09T15:55:26;21.30;91.90
6102;DHT22;3081;50.584;7.032;2022-09-09T15:57:53;21.30;92.40
6102;DHT22;3081;50.584;7.032;2022-09-09T16:00:21;21.60;92.20
6102;DHT22;3081;50.584;7.032;2022-09-09T16:02:48;23.00;91.00
6102;DHT22;3081;50.584;7.032;2022-09-09T16:05:15;23.40;89.70
6102;DHT22;3081;50.584;7.032;2022-09-09T16:07:42;24.70;85.40
6102;DHT22;3081;50.584;7.032;2022-09-09T16:10:10;24.40;85.90
6102;DHT22;3081;50.584;7.032;2022-09-09T16:12:40;23.70;86.70
6102;DHT22;3081;50.584;7.032;2022-09-09T16:15:08;22.90;89.20
6102;DHT22;3081;50.584;7.032;2022-09-09T16:17:35;21.80;91.30
6102;DHT22;3081;50.584;7.032;2022-09-09T16:20:04;21.00;92.90
6102;DHT22;3081;50.584;7.032;2022-09-09T16:22:34;20.30;94.40
6102;DHT22;3081;50.584;7.032;2022-09-09T16:25:01;19.80;95.40
6102;DHT22;3081;50.584;7.032;2022-09-09T16:27:28;19.80;96.10
6102;DHT22;3081;50.584;7.032;2022-09-09T16:29:57;19.70;97.00
6102;DHT22;3081;50.584;7.032;2022-09-09T16:32:24;20.50;97.40